sensor_id;sensor_type;location;lat;lon;timestamp;pressure;altitude;pressure_sealevel;temperature;humidity
73242;BME280;65659;49.234;-2.094;2023-04-23T00:00:17;99298.49;;;16.24;48.10
73242;BME280;65659;49.234;-2.094;2023-04-23T00:02:43;99293.50;;;16.33;47.96
73242;BME280;65659;49.234;-2.094;2023-04-23T00:05:09;99281.48;;;16.36;48.04
73242;BME280;65659;49.234;-2.094;2023-04-23T00:07:34;99284.15;;;16.27;48.18
73242;BME280;65659;49.234;-2.094;2023-04-23T00:10:00;99280.41;;;16.34;48.05
73242;BME280;65659;49.234;-2.094;2023-04-23T00:12:25;99278.16;;;15.80;48.25
73242;BME280;65659;49.234;-2.094;2023-04-23T00:14:50;99275.30;;;16.34;48.12
73242;BME280;65659;49.234;-2.094;2023-04-23T00:17:15;99274.34;;;16.41;48.07
73242;BME280;65659;49.234;-2.094;2023-04-23T00:19:41;99272.49;;;16.31;48.25
73242;BME280;65659;49.234;-2.094;2023-04-23T00:22:06;99276.67;;;16.28;48.29
73242;BME280;65659;49.234;-2.094;2023-04-23T00:24:32;99275.03;;;16.15;48.44
73242;BME280;65659;49.234;-2.094;2023-04-23T00:26:57;99270.65;;;16.29;48.24
73242;BME280;65659;49.234;-2.094;2023-04-23T00:29:23;99268.66;;;16.23;48.30
73242;BME280;65659;49.234;-2.094;2023-04-23T00:31:48;99272.62;;;16.40;48.34
73242;BME280;65659;49.234;-2.094;2023-04-23T00:34:14;99270.28;;;16.02;48.20
73242;BME280;65659;49.234;-2.094;2023-04-23T00:36:39;99269.37;;;16.10;48.49
73242;BME280;65659;49.234;-2.094;2023-04-23T00:39:04;99265.81;;;16.24;48.24
73242;BME280;65659;49.234;-2.094;2023-04-23T00:41:30;99269.43;;;16.09;48.51
73242;BME280;65659;49.234;-2.094;2023-04-23T00:44:00;99266.74;;;16.17;48.56
73242;BME280;65659;49.234;-2.094;2023-04-23T00:46:21;99266.41;;;16.28;48.42
73242;BME280;65659;49.234;-2.094;2023-04-23T00:48:52;99263.41;;;16.35;48.35
73242;BME280;65659;49.234;-2.094;2023-04-23T00:51:12;99265.70;;;16.40;48.27
73242;BME280;65659;49.234;-2.094;2023-04-23T00:53:38;99264.21;;;16.39;48.36
73242;BME280;65659;49.234;-2.094;2023-04-23T00:56:04;99262.67;;;16.49;48.27
73242;BME280;65659;49.234;-2.094;2023-04-23T00:58:29;99261.85;;;16.47;48.34
73242;BME280;65659;49.234;-2.094;2023-04-23T01:00:55;99258.96;;;16.53;48.29
73242;BME280;65659;49.234;-2.094;2023-04-23T01:03:19;99259.24;;;16.41;48.51
73242;BME280;65659;49.234;-2.094;2023-04-23T01:05:45;99256.57;;;16.53;48.34
73242;BME280;65659;49.234;-2.094;2023-04-23T01:08:14;99257.80;;;16.48;48.45
73242;BME280;65659;49.234;-2.094;2023-04-23T01:10:37;99255.67;;;16.24;48.56
73242;BME280;65659;49.234;-2.094;2023-04-23T01:13:02;99253.16;;;16.66;48.22
73242;BME280;65659;49.234;-2.094;2023-04-23T01:15:27;99252.40;;;16.68;48.19
73242;BME280;65659;49.234;-2.094;2023-04-23T01:17:53;99248.73;;;16.56;48.37
73242;BME280;65659;49.234;-2.094;2023-04-23T01:20:19;99245.29;;;16.51;48.46
73242;BME280;65659;49.234;-2.094;2023-04-23T01:22:44;99242.75;;;16.68;48.22
73242;BME280;65659;49.234;-2.094;2023-04-23T01:25:10;99237.76;;;16.72;48.13
73242;BME280;65659;49.234;-2.094;2023-04-23T01:27:36;99229.33;;;16.68;48.19
73242;BME280;65659;49.234;-2.094;2023-04-23T01:30:03;99227.70;;;16.44;48.13
73242;BME280;65659;49.234;-2.094;2023-04-23T01:32:26;99224.26;;;16.70;48.16
73242;BME280;65659;49.234;-2.094;2023-04-23T01:34:52;99219.32;;;16.62;48.27
73242;BME280;65659;49.234;-2.094;2023-04-23T01:37:19;99213.30;;;16.63;48.31
73242;BME280;65659;49.234;-2.094;2023-04-23T01:39:43;99218.58;;;16.29;48.51
73242;BME280;65659;49.234;-2.094;2023-04-23T01:42:09;99213.63;;;16.57;48.46
73242;BME280;65659;49.234;-2.094;2023-04-23T01:44:35;99211.62;;;16.48;48.61
73242;BME280;65659;49.234;-2.094;2023-04-23T01:47:01;99208.62;;;16.39;48.74
73242;BME280;65659;49.234;-2.094;2023-04-23T01:49:31;99206.26;;;16.68;48.74
73242;BME280;65659;49.234;-2.094;2023-04-23T01:51:51;99210.78;;;16.53;48.65
73242;BME280;65659;49.234;-2.094;2023-04-23T01:54:16;99210.32;;;16.45;48.85
73242;BME280;65659;49.234;-2.094;2023-04-23T01:56:42;99199.08;;;16.47;48.85
73242;BME280;65659;49.234;-2.094;2023-04-23T01:59:08;99199.00;;;16.69;48.92
73242;BME280;65659;49.234;-2.094;2023-04-23T02:01:41;99192.41;;;16.37;49.09
73242;BME280;65659;49.234;-2.094;2023-04-23T02:04:00;99191.85;;;16.43;48.95
73242;BME280;65659;49.234;-2.094;2023-04-23T02:06:25;99187.16;;;16.47;48.95
73242;BME280;65659;49.234;-2.094;2023-04-23T02:08:51;99187.50;;;16.46;48.95
73242;BME280;65659;49.234;-2.094;2023-04-23T02:11:17;99184.58;;;16.49;48.99
73242;BME280;65659;49.234;-2.094;2023-04-23T02:13:47;99183.26;;;16.58;48.93
73242;BME280;65659;49.234;-2.094;2023-04-23T02:16:13;99178.42;;;16.44;49.21
73242;BME280;65659;49.234;-2.094;2023-04-23T02:18:33;99178.83;;;16.61;48.94
73242;BME280;65659;49.234;-2.094;2023-04-23T02:20:59;99175.29;;;16.67;48.92
73242;BME280;65659;49.234;-2.094;2023-04-23T02:23:25;99171.16;;;16.66;48.99
73242;BME280;65659;49.234;-2.094;2023-04-23T02:25:50;99170.88;;;16.44;49.00
73242;BME280;65659;49.234;-2.094;2023-04-23T02:28:16;99168.29;;;16.59;49.14
73242;BME280;65659;49.234;-2.094;2023-04-23T02:30:41;99161.23;;;16.58;49.12
73242;BME280;65659;49.234;-2.094;2023-04-23T02:33:07;99159.99;;;16.74;48.92
73242;BME280;65659;49.234;-2.094;2023-04-23T02:35:38;99155.78;;;16.47;48.93
73242;BME280;65659;49.234;-2.094;2023-04-23T02:37:57;99153.07;;;16.71;48.94
73242;BME280;65659;49.234;-2.094;2023-04-23T02:40:28;99146.59;;;16.78;48.88
73242;BME280;65659;49.234;-2.094;2023-04-23T02:42:48;99144.55;;;16.60;49.11
73242;BME280;65659;49.234;-2.094;2023-04-23T02:45:24;99137.40;;;16.75;48.79
73242;BME280;65659;49.234;-2.094;2023-04-23T02:47:39;99133.02;;;16.63;48.80
73242;BME280;65659;49.234;-2.094;2023-04-23T02:50:05;99132.98;;;16.63;48.78
73242;BME280;65659;49.234;-2.094;2023-04-23T02:52:29;99126.56;;;16.67;48.66
73242;BME280;65659;49.234;-2.094;2023-04-23T02:54:55;99127.47;;;16.71;48.71
73242;BME280;65659;49.234;-2.094;2023-04-23T02:57:26;99126.16;;;16.39;48.84
73242;BME280;65659;49.234;-2.094;2023-04-23T02:59:46;99124.32;;;16.58;48.83
73242;BME280;65659;49.234;-2.094;2023-04-23T03:02:12;99124.08;;;16.59;48.89
73242;BME280;65659;49.234;-2.094;2023-04-23T03:04:37;99118.51;;;16.52;48.93
73242;BME280;65659;49.234;-2.094;2023-04-23T03:07:08;99109.87;;;16.64;48.87
73242;BME280;65659;49.234;-2.094;2023-04-23T03:09:33;99110.27;;;16.59;48.97
73242;BME280;65659;49.234;-2.094;2023-04-23T03:11:54;99106.10;;;16.69;48.87
73242;BME280;65659;49.234;-2.094;2023-04-23T03:14:19;99101.67;;;16.67;48.92
73242;BME280;65659;49.234;-2.094;2023-04-23T03:16:45;99096.74;;;16.51;49.34
73242;BME280;65659;49.234;-2.094;2023-04-23T03:19:10;99088.72;;;16.52;49.35
73242;BME280;65659;49.234;-2.094;2023-04-23T03:21:36;99089.29;;;16.64;49.23
73242;BME280;65659;49.234;-2.094;2023-04-23T03:24:01;99084.90;;;16.61;49.37
73242;BME280;65659;49.234;-2.094;2023-04-23T03:26:27;99074.15;;;16.75;49.18
73242;BME280;65659;49.234;-2.094;2023-04-23T03:28:52;99084.02;;;16.46;49.23
73242;BME280;65659;49.234;-2.094;2023-04-23T03:31:18;99081.91;;;16.34;49.42
73242;BME280;65659;49.234;-2.094;2023-04-23T03:33:43;99078.76;;;16.70;49.27
73242;BME280;65659;49.234;-2.094;2023-04-23T03:36:09;99074.86;;;16.75;49.16
73242;BME280;65659;49.234;-2.094;2023-04-23T03:38:34;99071.50;;;16.69;49.33
73242;BME280;65659;49.234;-2.094;2023-04-23T03:41:00;99069.62;;;16.42;49.35
73242;BME280;65659;49.234;-2.094;2023-04-23T03:43:26;99066.02;;;16.68;49.39
73242;BME280;65659;49.234;-2.094;2023-04-23T03:45:52;99065.74;;;16.68;49.42
73242;BME280;65659;49.234;-2.094;2023-04-23T03:48:17;99061.12;;;16.67;49.50
73242;BME280;65659;49.234;-2.094;2023-04-23T03:50:43;99052.32;;;16.57;49.34
73242;BME280;65659;49.234;-2.094;2023-04-23T03:53:08;99046.44;;;16.87;49.30
73242;BME280;65659;49.234;-2.094;2023-04-23T03:55:39;99044.77;;;16.87;49.41
73242;BME280;65659;49.234;-2.094;2023-04-23T03:57:59;99044.51;;;16.88;49.33
73242;BME280;65659;49.234;-2.094;2023-04-23T04:00:30;99041.84;;;16.86;49.37
73242;BME280;65659;49.234;-2.094;2023-04-23T04:02:55;99037.44;;;16.67;49.30
73242;BME280;65659;49.234;-2.094;2023-04-23T04:05:15;99027.46;;;16.59;49.40
73242;BME280;65659;49.234;-2.094;2023-04-23T04:07:41;99030.62;;;16.68;49.36
73242;BME280;65659;49.234;-2.094;2023-04-23T04:10:14;99028.96;;;16.40;49.40
73242;BME280;65659;49.234;-2.094;2023-04-23T04:12:32;99028.12;;;16.55;49.52
73242;BME280;65659;49.234;-2.094;2023-04-23T04:14:58;99027.38;;;16.57;49.83
73242;BME280;65659;49.234;-2.094;2023-04-23T04:17:24;99030.26;;;16.59;49.82
73242;BME280;65659;49.234;-2.094;2023-04-23T04:19:49;99030.15;;;16.32;50.08
73242;BME280;65659;49.234;-2.094;2023-04-23T04:22:15;99026.46;;;16.37;50.35
73242;BME280;65659;49.234;-2.094;2023-04-23T04:24:40;99020.17;;;16.09;50.13
73242;BME280;65659;49.234;-2.094;2023-04-23T04:27:06;99018.27;;;16.17;49.56
73242;BME280;65659;49.234;-2.094;2023-04-23T04:29:32;99016.63;;;16.02;49.36
73242;BME280;65659;49.234;-2.094;2023-04-23T04:32:03;99010.41;;;15.89;49.44
73242;BME280;65659;49.234;-2.094;2023-04-23T04:34:23;99013.76;;;15.70;49.57
73242;BME280;65659;49.234;-2.094;2023-04-23T04:36:48;99020.52;;;15.81;49.47
73242;BME280;65659;49.234;-2.094;2023-04-23T04:39:14;99024.31;;;15.39;49.27
73242;BME280;65659;49.234;-2.094;2023-04-23T04:41:39;99025.84;;;15.40;49.60
73242;BME280;65659;49.234;-2.094;2023-04-23T04:44:05;99032.27;;;15.49;49.50
73242;BME280;65659;49.234;-2.094;2023-04-23T04:46:30;99035.76;;;15.42;49.71
73242;BME280;65659;49.234;-2.094;2023-04-23T04:48:56;99036.55;;;15.54;49.86
73242;BME280;65659;49.234;-2.094;2023-04-23T04:51:21;99042.94;;;15.27;49.97
73242;BME280;65659;49.234;-2.094;2023-04-23T04:53:47;99040.56;;;15.56;49.75
73242;BME280;65659;49.234;-2.094;2023-04-23T04:56:12;99043.54;;;15.47;49.78
73242;BME280;65659;49.234;-2.094;2023-04-23T04:58:37;99044.79;;;15.20;49.50
73242;BME280;65659;49.234;-2.094;2023-04-23T05:01:03;99045.73;;;15.53;49.25
73242;BME280;65659;49.234;-2.094;2023-04-23T05:03:27;99045.28;;;15.41;49.20
73242;BME280;65659;49.234;-2.094;2023-04-23T05:05:53;99048.54;;;15.44;49.04
73242;BME280;65659;49.234;-2.094;2023-04-23T05:08:17;99050.90;;;15.44;49.42
73242;BME280;65659;49.234;-2.094;2023-04-23T05:10:43;99054.00;;;15.38;49.35
73242;BME280;65659;49.234;-2.094;2023-04-23T05:13:08;99054.11;;;15.34;49.19
73242;BME280;65659;49.234;-2.094;2023-04-23T05:15:33;99055.63;;;15.00;49.20
73242;BME280;65659;49.234;-2.094;2023-04-23T05:17:58;99052.25;;;15.25;49.18
73242;BME280;65659;49.234;-2.094;2023-04-23T05:20:23;99052.65;;;15.24;49.29
73242;BME280;65659;49.234;-2.094;2023-04-23T05:22:53;99054.60;;;15.48;49.27
73242;BME280;65659;49.234;-2.094;2023-04-23T05:25:13;99054.54;;;15.23;49.32
73242;BME280;65659;49.234;-2.094;2023-04-23T05:27:39;99054.58;;;15.19;49.64
73242;BME280;65659;49.234;-2.094;2023-04-23T05:30:05;99050.16;;;15.11;49.91
73242;BME280;65659;49.234;-2.094;2023-04-23T05:32:28;99051.48;;;14.89;50.09
73242;BME280;65659;49.234;-2.094;2023-04-23T05:34:53;99048.57;;;15.22;50.02
73242;BME280;65659;49.234;-2.094;2023-04-23T05:37:19;99043.59;;;15.01;50.07
73242;BME280;65659;49.234;-2.094;2023-04-23T05:39:44;99038.10;;;15.24;50.16
73242;BME280;65659;49.234;-2.094;2023-04-23T05:42:15;99039.79;;;14.93;50.27
73242;BME280;65659;49.234;-2.094;2023-04-23T05:44:34;99040.74;;;14.92;50.38
73242;BME280;65659;49.234;-2.094;2023-04-23T05:46:59;99037.18;;;15.30;50.24
73242;BME280;65659;49.234;-2.094;2023-04-23T05:49:25;99033.90;;;15.24;50.08
73242;BME280;65659;49.234;-2.094;2023-04-23T05:51:50;99026.45;;;15.26;49.92
73242;BME280;65659;49.234;-2.094;2023-04-23T05:54:16;99022.02;;;15.03;49.75
73242;BME280;65659;49.234;-2.094;2023-04-23T05:56:41;99013.87;;;14.84;49.61
73242;BME280;65659;49.234;-2.094;2023-04-23T05:59:11;99015.02;;;15.32;49.55
73242;BME280;65659;49.234;-2.094;2023-04-23T06:01:31;99010.45;;;15.29;49.50
73242;BME280;65659;49.234;-2.094;2023-04-23T06:03:56;99009.49;;;15.27;49.41
73242;BME280;65659;49.234;-2.094;2023-04-23T06:06:21;99006.02;;;15.20;49.52
73242;BME280;65659;49.234;-2.094;2023-04-23T06:08:46;99006.45;;;15.20;49.22
73242;BME280;65659;49.234;-2.094;2023-04-23T06:11:11;99002.38;;;15.16;49.14
73242;BME280;65659;49.234;-2.094;2023-04-23T06:13:36;99000.03;;;14.96;49.14
73242;BME280;65659;49.234;-2.094;2023-04-23T06:16:01;98995.63;;;14.96;48.91
73242;BME280;65659;49.234;-2.094;2023-04-23T06:18:26;98992.92;;;14.96;49.01
73242;BME280;65659;49.234;-2.094;2023-04-23T06:20:51;98991.76;;;14.92;48.87
73242;BME280;65659;49.234;-2.094;2023-04-23T06:23:21;98991.88;;;14.87;49.02
73242;BME280;65659;49.234;-2.094;2023-04-23T06:25:41;98990.42;;;14.76;48.98
73242;BME280;65659;49.234;-2.094;2023-04-23T06:28:07;98988.33;;;15.03;48.95
73242;BME280;65659;49.234;-2.094;2023-04-23T06:30:31;98986.60;;;14.77;48.90
73242;BME280;65659;49.234;-2.094;2023-04-23T06:32:57;98985.29;;;14.75;48.95
73242;BME280;65659;49.234;-2.094;2023-04-23T06:35:22;98981.46;;;14.74;48.95
73242;BME280;65659;49.234;-2.094;2023-04-23T06:37:47;98977.43;;;14.73;48.93
73242;BME280;65659;49.234;-2.094;2023-04-23T06:40:12;98978.14;;;14.71;49.01
73242;BME280;65659;49.234;-2.094;2023-04-23T06:42:37;98979.75;;;14.70;49.04
73242;BME280;65659;49.234;-2.094;2023-04-23T06:45:02;98982.30;;;14.67;49.10
73242;BME280;65659;49.234;-2.094;2023-04-23T06:47:27;98983.33;;;14.69;49.03
73242;BME280;65659;49.234;-2.094;2023-04-23T06:49:52;98982.65;;;14.70;49.04
73242;BME280;65659;49.234;-2.094;2023-04-23T06:52:17;98982.60;;;14.65;49.04
73242;BME280;65659;49.234;-2.094;2023-04-23T06:54:42;98978.34;;;14.87;48.98
73242;BME280;65659;49.234;-2.094;2023-04-23T06:57:09;98973.08;;;14.70;48.93
73242;BME280;65659;49.234;-2.094;2023-04-23T06:59:32;98969.21;;;14.70;49.01
73242;BME280;65659;49.234;-2.094;2023-04-23T07:02:03;98962.85;;;14.73;49.20
73242;BME280;65659;49.234;-2.094;2023-04-23T07:04:23;98959.90;;;14.99;49.30
73242;BME280;65659;49.234;-2.094;2023-04-23T07:06:47;98958.04;;;14.79;49.21
73242;BME280;65659;49.234;-2.094;2023-04-23T07:09:13;98957.93;;;14.82;49.13
73242;BME280;65659;49.234;-2.094;2023-04-23T07:11:38;98959.41;;;14.85;49.18
73242;BME280;65659;49.234;-2.094;2023-04-23T07:14:08;98959.83;;;14.89;49.11
73242;BME280;65659;49.234;-2.094;2023-04-23T07:16:28;98961.62;;;14.90;49.06
73242;BME280;65659;49.234;-2.094;2023-04-23T07:18:53;98960.73;;;14.67;49.30
73242;BME280;65659;49.234;-2.094;2023-04-23T07:21:18;98956.88;;;14.91;49.25
73242;BME280;65659;49.234;-2.094;2023-04-23T07:23:43;98957.58;;;14.89;49.26
73242;BME280;65659;49.234;-2.094;2023-04-23T07:26:08;98957.80;;;14.91;49.21
73242;BME280;65659;49.234;-2.094;2023-04-23T07:28:33;98953.40;;;14.91;49.35
73242;BME280;65659;49.234;-2.094;2023-04-23T07:31:03;98950.82;;;14.97;49.34
73242;BME280;65659;49.234;-2.094;2023-04-23T07:33:23;98947.81;;;14.78;49.33
73242;BME280;65659;49.234;-2.094;2023-04-23T07:35:48;98945.26;;;15.04;49.22
73242;BME280;65659;49.234;-2.094;2023-04-23T07:38:14;98942.17;;;15.09;49.01
73242;BME280;65659;49.234;-2.094;2023-04-23T07:40:39;98940.33;;;15.08;49.08
73242;BME280;65659;49.234;-2.094;2023-04-23T07:43:05;98944.13;;;14.85;49.04
73242;BME280;65659;49.234;-2.094;2023-04-23T07:45:29;98941.39;;;14.87;49.05
73242;BME280;65659;49.234;-2.094;2023-04-23T07:47:54;98938.24;;;14.88;49.08
73242;BME280;65659;49.234;-2.094;2023-04-23T07:50:20;98934.49;;;15.18;49.05
73242;BME280;65659;49.234;-2.094;2023-04-23T07:52:46;98936.80;;;15.23;49.09
73242;BME280;65659;49.234;-2.094;2023-04-23T07:55:11;98934.27;;;15.27;49.07
73242;BME280;65659;49.234;-2.094;2023-04-23T07:57:36;98934.83;;;15.26;49.12
73242;BME280;65659;49.234;-2.094;2023-04-23T08:00:02;98933.47;;;15.25;49.17
73242;BME280;65659;49.234;-2.094;2023-04-23T08:02:26;98933.21;;;15.03;49.16
73242;BME280;65659;49.234;-2.094;2023-04-23T08:04:52;98930.91;;;15.15;49.07
73242;BME280;65659;49.234;-2.094;2023-04-23T08:07:17;98934.64;;;15.22;49.02
73242;BME280;65659;49.234;-2.094;2023-04-23T08:09:43;98933.84;;;15.28;49.07
73242;BME280;65659;49.234;-2.094;2023-04-23T08:12:08;98937.08;;;15.31;48.90
73242;BME280;65659;49.234;-2.094;2023-04-23T08:14:33;98934.53;;;15.45;48.87
73242;BME280;65659;49.234;-2.094;2023-04-23T08:16:59;98938.34;;;15.34;48.70
73242;BME280;65659;49.234;-2.094;2023-04-23T08:19:24;98935.77;;;15.40;48.69
73242;BME280;65659;49.234;-2.094;2023-04-23T08:21:50;98939.34;;;15.54;48.66
73242;BME280;65659;49.234;-2.094;2023-04-23T08:24:20;98939.69;;;15.60;48.55
73242;BME280;65659;49.234;-2.094;2023-04-23T08:26:41;98938.36;;;15.67;48.35
73242;BME280;65659;49.234;-2.094;2023-04-23T08:29:11;98938.43;;;15.44;48.25
73242;BME280;65659;49.234;-2.094;2023-04-23T08:31:32;98942.81;;;15.82;48.23
73242;BME280;65659;49.234;-2.094;2023-04-23T08:33:57;98942.13;;;15.84;47.95
73242;BME280;65659;49.234;-2.094;2023-04-23T08:36:23;98949.19;;;16.12;47.64
73242;BME280;65659;49.234;-2.094;2023-04-23T08:38:48;98949.03;;;15.64;47.54
73242;BME280;65659;49.234;-2.094;2023-04-23T08:41:14;98948.89;;;15.93;47.48
73242;BME280;65659;49.234;-2.094;2023-04-23T08:43:44;98952.46;;;15.93;47.27
73242;BME280;65659;49.234;-2.094;2023-04-23T08:46:07;98951.48;;;15.83;47.09
73242;BME280;65659;49.234;-2.094;2023-04-23T08:48:30;98956.62;;;15.85;46.99
73242;BME280;65659;49.234;-2.094;2023-04-23T08:50:56;98958.70;;;15.92;47.03
73242;BME280;65659;49.234;-2.094;2023-04-23T08:53:22;98959.39;;;16.16;47.18
73242;BME280;65659;49.234;-2.094;2023-04-23T08:55:51;98957.40;;;15.95;47.34
73242;BME280;65659;49.234;-2.094;2023-04-23T08:58:13;98966.18;;;15.99;47.34
73242;BME280;65659;49.234;-2.094;2023-04-23T09:00:37;98966.48;;;15.95;47.31
73242;BME280;65659;49.234;-2.094;2023-04-23T09:03:03;98966.15;;;16.04;47.36
73242;BME280;65659;49.234;-2.094;2023-04-23T09:05:28;98967.57;;;16.18;47.11
73242;BME280;65659;49.234;-2.094;2023-04-23T09:07:53;98972.56;;;16.18;47.25
73242;BME280;65659;49.234;-2.094;2023-04-23T09:10:19;98970.10;;;15.99;47.03
73242;BME280;65659;49.234;-2.094;2023-04-23T09:12:44;98973.41;;;15.94;46.55
73242;BME280;65659;49.234;-2.094;2023-04-23T09:15:10;98970.99;;;15.86;46.28
73242;BME280;65659;49.234;-2.094;2023-04-23T09:17:37;98975.13;;;15.74;46.64
73242;BME280;65659;49.234;-2.094;2023-04-23T09:20:02;98975.14;;;15.81;46.65
73242;BME280;65659;49.234;-2.094;2023-04-23T09:22:37;98978.63;;;15.71;47.11
73242;BME280;65659;49.234;-2.094;2023-04-23T09:24:53;98980.22;;;15.62;47.40
73242;BME280;65659;49.234;-2.094;2023-04-23T09:27:19;98979.42;;;15.66;47.50
73242;BME280;65659;49.234;-2.094;2023-04-23T09:29:43;98981.34;;;15.60;47.55
73242;BME280;65659;49.234;-2.094;2023-04-23T09:32:08;98986.18;;;15.63;47.66
73242;BME280;65659;49.234;-2.094;2023-04-23T09:34:35;98989.53;;;15.87;47.54
73242;BME280;65659;49.234;-2.094;2023-04-23T09:36:59;98990.44;;;15.93;47.50
73242;BME280;65659;49.234;-2.094;2023-04-23T09:39:24;98991.17;;;15.99;47.90
73242;BME280;65659;49.234;-2.094;2023-04-23T09:41:51;98990.78;;;16.34;47.83
73242;BME280;65659;49.234;-2.094;2023-04-23T09:44:17;99006.20;;;15.93;47.82
73242;BME280;65659;49.234;-2.094;2023-04-23T09:46:42;99009.32;;;16.08;47.36
73242;BME280;65659;49.234;-2.094;2023-04-23T09:49:08;99016.53;;;16.14;46.86
73242;BME280;65659;49.234;-2.094;2023-04-23T09:51:31;99019.77;;;16.46;46.62
73242;BME280;65659;49.234;-2.094;2023-04-23T09:53:58;99020.27;;;16.42;46.42
73242;BME280;65659;49.234;-2.094;2023-04-23T09:56:23;99026.36;;;16.15;46.51
73242;BME280;65659;49.234;-2.094;2023-04-23T09:58:48;99033.85;;;15.72;46.40
73242;BME280;65659;49.234;-2.094;2023-04-23T10:01:13;99032.48;;;16.18;46.32
73242;BME280;65659;49.234;-2.094;2023-04-23T10:03:41;99038.14;;;16.25;46.82
73242;BME280;65659;49.234;-2.094;2023-04-23T10:06:04;99040.45;;;16.09;46.51
73242;BME280;65659;49.234;-2.094;2023-04-23T10:08:31;99037.38;;;16.38;46.30
73242;BME280;65659;49.234;-2.094;2023-04-23T10:10:55;99035.13;;;16.45;46.24
73242;BME280;65659;49.234;-2.094;2023-04-23T10:13:21;99040.76;;;16.25;46.42
73242;BME280;65659;49.234;-2.094;2023-04-23T10:15:46;99044.47;;;16.59;46.41
73242;BME280;65659;49.234;-2.094;2023-04-23T10:18:12;99045.23;;;16.48;46.10
73242;BME280;65659;49.234;-2.094;2023-04-23T10:20:37;99045.16;;;16.52;46.07
73242;BME280;65659;49.234;-2.094;2023-04-23T10:23:04;99048.16;;;16.40;46.50
73242;BME280;65659;49.234;-2.094;2023-04-23T10:25:28;99053.23;;;16.29;46.23
73242;BME280;65659;49.234;-2.094;2023-04-23T10:27:54;99062.11;;;16.66;45.99
73242;BME280;65659;49.234;-2.094;2023-04-23T10:30:19;99057.07;;;16.46;45.48
73242;BME280;65659;49.234;-2.094;2023-04-23T10:32:47;99065.82;;;16.55;45.46
73242;BME280;65659;49.234;-2.094;2023-04-23T10:35:09;99064.96;;;16.89;45.63
73242;BME280;65659;49.234;-2.094;2023-04-23T10:37:35;99070.37;;;16.58;45.41
73242;BME280;65659;49.234;-2.094;2023-04-23T10:40:05;99068.40;;;16.77;45.10
73242;BME280;65659;49.234;-2.094;2023-04-23T10:42:25;99070.88;;;16.59;44.78
73242;BME280;65659;49.234;-2.094;2023-04-23T10:44:55;99073.53;;;16.49;44.79
73242;BME280;65659;49.234;-2.094;2023-04-23T10:47:16;99077.46;;;16.68;45.00
73242;BME280;65659;49.234;-2.094;2023-04-23T10:49:42;99074.38;;;17.23;44.69
73242;BME280;65659;49.234;-2.094;2023-04-23T10:52:09;99079.46;;;16.79;44.49
73242;BME280;65659;49.234;-2.094;2023-04-23T10:54:33;99084.69;;;16.63;44.54
73242;BME280;65659;49.234;-2.094;2023-04-23T10:57:00;99088.64;;;17.21;44.41
73242;BME280;65659;49.234;-2.094;2023-04-23T10:59:30;99093.86;;;17.20;44.38
73242;BME280;65659;49.234;-2.094;2023-04-23T11:01:49;99099.15;;;16.84;44.01
73242;BME280;65659;49.234;-2.094;2023-04-23T11:04:22;99111.61;;;16.61;44.16
73242;BME280;65659;49.234;-2.094;2023-04-23T11:06:50;99112.40;;;16.80;43.87
73242;BME280;65659;49.234;-2.094;2023-04-23T11:11:38;99117.79;;;16.58;43.62
73242;BME280;65659;49.234;-2.094;2023-04-23T11:14:10;99121.78;;;16.76;43.66
73242;BME280;65659;49.234;-2.094;2023-04-23T11:16:22;99126.37;;;16.71;43.41
73242;BME280;65659;49.234;-2.094;2023-04-23T11:18:57;99129.96;;;16.67;42.93
73242;BME280;65659;49.234;-2.094;2023-04-23T11:21:12;99129.34;;;16.75;42.81
73242;BME280;65659;49.234;-2.094;2023-04-23T11:23:39;99128.00;;;16.81;43.03
73242;BME280;65659;49.234;-2.094;2023-04-23T11:26:04;99131.57;;;16.99;43.43
73242;BME280;65659;49.234;-2.094;2023-04-23T11:28:30;99134.83;;;17.03;42.62
73242;BME280;65659;49.234;-2.094;2023-04-23T11:30:54;99132.76;;;17.12;42.54
73242;BME280;65659;49.234;-2.094;2023-04-23T11:33:20;99135.98;;;17.23;42.19
73242;BME280;65659;49.234;-2.094;2023-04-23T11:35:45;99136.70;;;17.41;42.00
73242;BME280;65659;49.234;-2.094;2023-04-23T11:38:10;99145.79;;;17.51;41.75
73242;BME280;65659;49.234;-2.094;2023-04-23T11:40:36;99143.24;;;17.42;41.52
73242;BME280;65659;49.234;-2.094;2023-04-23T11:43:01;99143.66;;;17.70;41.83
73242;BME280;65659;49.234;-2.094;2023-04-23T11:45:34;99158.40;;;17.63;40.92
73242;BME280;65659;49.234;-2.094;2023-04-23T11:47:53;99157.15;;;17.45;40.36
73242;BME280;65659;49.234;-2.094;2023-04-23T11:50:18;99161.57;;;17.54;40.02
73242;BME280;65659;49.234;-2.094;2023-04-23T11:52:42;99175.39;;;17.42;39.04
73242;BME280;65659;49.234;-2.094;2023-04-23T11:55:08;99164.65;;;17.53;39.44
73242;BME280;65659;49.234;-2.094;2023-04-23T11:57:36;99165.18;;;17.82;39.72
73242;BME280;65659;49.234;-2.094;2023-04-23T11:59:59;99169.41;;;17.79;39.57
73242;BME280;65659;49.234;-2.094;2023-04-23T12:02:24;99174.88;;;17.46;38.74
73242;BME280;65659;49.234;-2.094;2023-04-23T12:04:50;99180.95;;;17.36;38.48
73242;BME280;65659;49.234;-2.094;2023-04-23T12:07:15;99181.11;;;17.76;38.69
73242;BME280;65659;49.234;-2.094;2023-04-23T12:09:41;99190.31;;;17.29;37.95
73242;BME280;65659;49.234;-2.094;2023-04-23T12:12:06;99188.36;;;17.72;37.79
73242;BME280;65659;49.234;-2.094;2023-04-23T12:14:36;99197.60;;;17.58;37.51
73242;BME280;65659;49.234;-2.094;2023-04-23T12:16:57;99201.89;;;17.35;37.48
73242;BME280;65659;49.234;-2.094;2023-04-23T12:19:26;99205.72;;;17.22;37.71
73242;BME280;65659;49.234;-2.094;2023-04-23T12:21:49;99208.51;;;17.20;37.66
73242;BME280;65659;49.234;-2.094;2023-04-23T12:24:13;99206.02;;;17.04;37.70
73242;BME280;65659;49.234;-2.094;2023-04-23T12:26:40;99214.34;;;16.99;37.94
73242;BME280;65659;49.234;-2.094;2023-04-23T12:29:06;99205.08;;;16.99;37.77
73242;BME280;65659;49.234;-2.094;2023-04-23T12:31:30;99202.79;;;17.31;37.70
73242;BME280;65659;49.234;-2.094;2023-04-23T12:34:02;99201.78;;;17.00;38.15
73242;BME280;65659;49.234;-2.094;2023-04-23T12:36:26;99212.35;;;17.28;38.14
73242;BME280;65659;49.234;-2.094;2023-04-23T12:38:47;99206.75;;;17.02;38.35
73242;BME280;65659;49.234;-2.094;2023-04-23T12:41:12;99208.04;;;17.09;37.89